Time;durP1;ratioP1;P1;durP2;ratioP2;P2;SDS_P1;SDS_P2;PMS_P1;PMS_P2;Temp;Humidity;BMP_temperature;BMP_pressure;BME280_temperature;BME280_humidity;BME280_pressure;Samples;Min_cycle;Max_cycle;Signal;HPM_P1;HPM_P2
2021/11/14 00:00:20;;;;;;;1999.90;999.90;;;;;;;1.97;85.21;101196.91;1687428;84;20907;-81
2021/11/14 00:02:46;;;;;;;1999.90;999.90;;;;;;;1.99;85.25;101191.03;1685768;84;20876;-81
2021/11/14 00:05:12;;;;;;;1999.90;999.90;;;;;;;2.01;85.27;101186.39;1688411;83;20922;-81
2021/11/14 00:07:38;;;;;;;1999.90;999.90;;;;;;;1.99;85.20;101191.44;1686493;83;21557;-81
2021/11/14 00:10:06;;;;;;;1999.90;999.90;;;;;;;1.96;85.20;101191.36;1690464;84;20868;-81
2021/11/14 00:12:32;;;;;;;1999.90;999.90;;;;;;;1.93;85.24;101190.86;1696359;84;21407;-81
2021/11/14 00:14:58;;;;;;;1999.90;999.90;;;;;;;1.89;85.17;101195.83;1684820;84;20875;-81
2021/11/14 00:17:26;;;;;;;1999.90;999.90;;;;;;;1.85;85.24;101196.16;1691539;84;20879;-81
2021/11/14 00:19:52;;;;;;;1999.90;999.90;;;;;;;1.83;85.30;101190.55;1683287;83;20962;-81
2021/11/14 00:22:18;;;;;;;1999.90;999.90;;;;;;;1.84;85.39;101199.52;1692331;84;20914;-81
2021/11/14 00:24:45;;;;;;;;;;;;;;;1.82;85.37;101199.89;1692637;84;21403;-81
2021/11/14 00:27:10;;;;;;;1999.90;999.90;;;;;;;1.81;85.41;101200.70;1685513;84;20226;-81
2021/11/14 00:29:37;;;;;;;1999.90;999.90;;;;;;;1.82;85.49;101196.06;1666798;84;21624;-81
2021/11/14 00:32:05;;;;;;;1999.90;999.90;;;;;;;1.84;85.48;101200.80;1682789;84;21463;-81
2021/11/14 00:34:33;;;;;;;1999.90;999.90;;;;;;;1.84;85.45;101194.83;1622475;87;20897;-81
2021/11/14 00:36:59;;;;;;;1999.90;999.90;;;;;;;1.89;85.54;101199.66;1683743;83;20942;-81
2021/11/14 00:39:31;;;;;;;1999.90;999.90;;;;;;;1.87;85.45;101202.16;1693797;84;21491;-81
2021/11/14 00:41:57;;;;;;;1999.90;999.90;;;;;;;1.89;85.47;101202.20;1689466;84;21407;-81
2021/11/14 00:44:24;;;;;;;1999.90;999.90;;;;;;;1.89;85.47;101211.99;1689811;84;20875;-81
2021/11/14 00:46:50;;;;;;;1999.90;999.90;;;;;;;1.90;85.50;101206.08;1683915;83;20918;-81
2021/11/14 00:49:16;;;;;;;1999.90;999.90;;;;;;;1.88;85.40;101205.16;1686490;83;21363;-81
2021/11/14 00:51:46;;;;;;;1999.90;999.90;;;;;;;1.88;85.43;101206.44;1687895;84;20930;-81
2021/11/14 00:54:14;;;;;;;1999.90;999.90;;;;;;;1.90;85.51;101209.03;1691476;84;20950;-81
2021/11/14 00:56:40;;;;;;;1999.90;999.90;;;;;;;1.92;85.53;101213.36;1690271;84;20906;-81
2021/11/14 00:59:13;;;;;;;1999.90;999.90;;;;;;;1.94;85.60;101214.67;1686075;84;21410;-81
2021/11/14 01:01:39;;;;;;;1999.90;999.90;;;;;;;1.96;85.61;101216.45;1664292;84;20859;-81
2021/11/14 01:04:05;;;;;;;1999.90;999.90;;;;;;;1.97;85.48;101214.35;1665238;85;20926;-81
2021/11/14 01:06:31;;;;;;;1999.90;999.90;;;;;;;1.96;85.53;101221.55;1690862;84;21347;-81
2021/11/14 01:08:58;;;;;;;1999.90;999.90;;;;;;;1.95;85.45;101218.55;1660436;84;21437;-81
2021/11/14 01:11:24;;;;;;;1999.90;999.90;;;;;;;1.92;85.42;101217.59;1681584;85;27308;-81
2021/11/14 01:13:51;;;;;;;1999.90;999.90;;;;;;;1.92;85.53;101218.45;1675557;85;28105;-81
2021/11/14 01:16:21;;;;;;;1999.90;999.90;;;;;;;1.94;85.49;101224.88;1677145;85;20936;-81
2021/11/14 01:18:47;;;;;;;1999.90;999.90;;;;;;;1.92;85.43;101225.24;1683318;85;21054;-81
2021/11/14 01:21:16;;;;;;;1999.90;999.90;;;;;;;1.91;85.43;101226.06;1680762;85;21534;-81
2021/11/14 01:23:50;;;;;;;1999.90;999.90;;;;;;;1.90;85.47;101230.30;1660364;85;21491;-81
2021/11/14 01:26:17;;;;;;;1999.90;999.90;;;;;;;1.88;85.44;101230.66;1663957;85;21423;-81
2021/11/14 01:28:43;;;;;;;1999.90;999.90;;;;;;;1.89;85.53;101231.12;1677815;85;20920;-81
2021/11/14 01:31:10;;;;;;;1999.90;999.90;;;;;;;1.90;85.56;101231.57;1684442;85;20951;-81
2021/11/14 01:33:36;;;;;;;;;;;;;;;1.93;85.51;101232.07;1679984;85;20978;-81
2021/11/14 01:36:04;;;;;;;1999.90;999.90;;;;;;;1.91;85.50;101227.34;1662908;85;20155;-81
2021/11/14 01:38:31;;;;;;;1999.90;999.90;;;;;;;1.87;85.50;101226.38;1673670;85;20964;-81
2021/11/14 01:41:03;;;;;;;1999.90;999.90;;;;;;;1.87;85.50;101229.34;1684052;85;21502;-81
2021/11/14 01:43:34;;;;;;;1999.90;999.90;;;;;;;1.87;85.48;101230.21;1668538;85;21453;-81
2021/11/14 01:46:07;;;;;;;1999.90;999.90;;;;;;;1.84;85.43;101235.62;1684081;85;20936;-81
2021/11/14 01:48:33;;;;;;;1999.90;999.90;;;;;;;1.81;85.45;101239.36;1676871;85;22157;-81
2021/11/14 01:51:00;;;;;;;1999.90;999.90;;;;;;;1.78;85.46;101242.69;1683091;84;21444;-81
2021/11/14 01:53:27;;;;;;;1999.90;999.90;;;;;;;1.75;85.46;101242.59;1669879;85;20953;-81
2021/11/14 01:55:54;;;;;;;;;;;;;;;1.71;85.46;101239.50;1679959;85;20987;-81
2021/11/14 01:58:25;;;;;;;1999.90;999.90;;;;;;;1.70;85.63;101250.52;1676093;85;20403;-81
2021/11/14 02:00:59;;;;;;;1999.90;999.90;;;;;;;1.72;85.66;101245.05;1672802;85;21388;-81
2021/11/14 02:03:29;;;;;;;1999.90;999.90;;;;;;;1.73;85.67;101252.29;1678489;85;20968;-81
2021/11/14 02:05:56;;;;;;;1999.90;999.90;;;;;;;1.73;85.61;101247.19;1684259;85;21507;-81
2021/11/14 02:08:22;;;;;;;1999.90;999.90;;;;;;;1.72;85.63;101249.28;1670159;85;20942;-81
2021/11/14 02:10:50;;;;;;;1999.90;999.90;;;;;;;1.73;85.65;101254.43;1649923;85;20916;-81
2021/11/14 02:13:17;;;;;;;1999.90;999.90;;;;;;;1.73;85.62;101255.70;1679903;84;21444;-81
2021/11/14 02:15:43;;;;;;;1999.90;999.90;;;;;;;1.73;85.63;101253.56;1675456;84;20935;-81
2021/11/14 02:18:12;;;;;;;1999.90;999.90;;;;;;;1.72;85.56;101254.38;1684045;85;21456;-81
2021/11/14 02:20:40;;;;;;;1999.90;999.90;;;;;;;1.69;85.58;101250.05;1681370;85;21115;-81
2021/11/14 02:23:09;;;;;;;1999.90;999.90;;;;;;;1.67;85.54;101259.34;1654880;85;21090;-81
2021/11/14 02:25:35;;;;;;;1999.90;999.90;;;;;;;1.65;85.51;101264.39;1682099;84;21063;-81
2021/11/14 02:28:02;;;;;;;1999.90;999.90;;;;;;;1.64;85.55;101270.72;1676754;85;20876;-80
2021/11/14 02:30:29;;;;;;;1999.90;999.90;;;;;;;1.63;85.52;101265.17;1683943;85;20991;-80
2021/11/14 02:32:56;;;;;;;1999.90;999.90;;;;;;;1.61;85.52;101263.84;1684338;85;21595;-80
2021/11/14 02:35:26;;;;;;;1999.90;999.90;;;;;;;1.62;85.60;101274.91;1682331;85;20968;-80
2021/11/14 02:37:53;;;;;;;1999.90;999.90;;;;;;;1.64;85.69;101280.91;1677555;85;21396;-80
2021/11/14 02:40:19;;;;;;;;;;;;;;;1.63;85.62;101288.11;1663803;85;21464;-80
2021/11/14 02:42:48;;;;;;;1999.90;999.90;;;;;;;1.60;85.59;101289.28;1655941;85;20131;-80
2021/11/14 02:45:20;;;;;;;1999.90;999.90;;;;;;;1.58;85.62;101291.78;1646022;85;20888;-80
2021/11/14 02:47:51;;;;;;;1999.90;999.90;;;;;;;1.56;85.58;101302.78;1679979;85;20965;-81
2021/11/14 02:50:17;;;;;;;1999.90;999.90;;;;;;;1.52;85.58;101308.19;1668571;85;20983;-81
2021/11/14 02:52:44;;;;;;;1999.90;999.90;;;;;;;1.50;85.60;101306.41;1658755;83;20974;-82
2021/11/14 02:55:15;;;;;;;1999.90;999.90;;;;;;;1.48;85.66;101308.05;1674469;85;20920;-81
2021/11/14 02:57:41;;;;;;;1999.90;999.90;;;;;;;1.48;85.63;101308.05;1672424;85;20876;-81
2021/11/14 03:00:15;;;;;;;1999.90;999.90;;;;;;;1.47;85.69;101305.91;1684627;85;21584;-81
2021/11/14 03:02:41;;;;;;;1999.90;999.90;;;;;;;1.47;85.73;101316.09;1672656;85;20912;-81
2021/11/14 03:05:14;;;;;;;1999.90;999.90;;;;;;;1.49;85.77;101318.28;1678057;85;20955;-81
2021/11/14 03:07:42;;;;;;;1999.90;999.90;;;;;;;1.52;85.77;101319.66;1661855;85;20896;-81
2021/11/14 03:10:12;;;;;;;1999.90;999.90;;;;;;;1.54;85.79;101314.61;1678599;85;20976;-81
2021/11/14 03:12:39;;;;;;;1999.90;999.90;;;;;;;1.55;85.72;101313.39;1684261;85;20944;-81
2021/11/14 03:15:06;;;;;;;1999.90;999.90;;;;;;;1.59;85.79;101319.41;1671169;83;20971;-81
2021/11/14 03:17:34;;;;;;;1999.90;999.90;;;;;;;1.62;85.79;101319.10;1662616;85;20931;-81
2021/11/14 03:20:00;;;;;;;1999.90;999.90;;;;;;;1.65;85.79;101327.26;1669499;85;20912;-81
2021/11/14 03:22:26;;;;;;;1999.90;999.90;;;;;;;1.68;85.80;101329.91;1667144;85;20967;-81
2021/11/14 03:24:53;;;;;;;1999.90;999.90;;;;;;;1.69;85.74;101332.05;1679386;85;21442;-81
2021/11/14 03:27:24;;;;;;;1999.90;999.90;;;;;;;1.70;85.73;101332.50;1672102;85;20968;-81
2021/11/14 03:29:50;;;;;;;1999.90;999.90;;;;;;;1.72;85.74;101337.23;1669651;85;20967;-81
2021/11/14 03:32:16;;;;;;;1999.90;999.90;;;;;;;1.73;85.76;101335.14;1684325;85;20919;-81
2021/11/14 03:34:42;;;;;;;1999.90;999.90;;;;;;;1.74;85.78;101340.70;1683277;85;20927;-81
2021/11/14 03:37:19;;;;;;;1999.90;999.90;;;;;;;1.77;85.83;101342.07;1673538;85;20960;-81
2021/11/14 03:39:45;;;;;;;;;;;;;;;1.78;85.82;101345.08;1686605;85;21127;-81
2021/11/14 03:42:11;;;;;;;1999.90;999.90;;;;;;;1.77;85.83;101349.72;1656780;85;25062;-81
2021/11/14 03:44:37;;;;;;;1999.90;999.90;;;;;;;1.73;85.65;101350.44;1666454;85;20976;-81
2021/11/14 03:47:05;;;;;;;1999.90;999.90;;;;;;;1.73;85.77;101352.58;1667216;85;20943;-81
2021/11/14 03:49:33;;;;;;;1999.90;999.90;;;;;;;1.74;85.78;101352.17;1657062;85;20969;-81
2021/11/14 03:52:00;;;;;;;1999.90;999.90;;;;;;;1.72;85.78;101348.70;1680018;83;20971;-81
2021/11/14 03:54:26;;;;;;;1999.90;999.90;;;;;;;1.72;85.85;101355.95;1682162;85;21461;-81
2021/11/14 03:56:52;;;;;;;1999.90;999.90;;;;;;;1.70;85.81;101353.76;1662140;85;20904;-81
2021/11/14 03:59:19;;;;;;;1999.90;999.90;;;;;;;1.69;85.79;101357.12;1661917;85;20987;-81
2021/11/14 04:01:45;;;;;;;1999.90;999.90;;;;;;;1.70;85.83;101361.81;1683415;85;20931;-81
2021/11/14 04:04:14;;;;;;;1999.90;999.90;;;;;;;1.68;85.81;101366.86;1673592;85;20955;-81
2021/11/14 04:06:41;;;;;;;1999.90;999.90;;;;;;;1.65;85.70;101370.59;1681842;85;20941;-81
2021/11/14 04:09:07;;;;;;;1999.90;999.90;;;;;;;1.62;85.76;101373.04;1692750;83;20931;-81
2021/11/14 04:11:32;;;;;;;1999.90;999.90;;;;;;;1.61;85.81;101372.58;1686130;83;20985;-81
2021/11/14 04:13:59;;;;;;;1999.90;999.90;;;;;;;1.59;85.80;101375.08;1676780;83;20971;-81
2021/11/14 04:16:25;;;;;;;1999.90;999.90;;;;;;;1.57;85.80;101374.16;1702388;84;20919;-81
2021/11/14 04:18:51;;;;;;;1999.90;999.90;;;;;;;1.56;85.79;101374.14;1681797;84;20882;-81
2021/11/14 04:21:17;;;;;;;1999.90;999.90;;;;;;;1.57;85.90;101375.44;1673005;83;649938;-81
2021/11/14 04:23:43;;;;;;;1999.90;999.90;;;;;;;1.60;85.99;101374.27;1667778;84;20963;-81
2021/11/14 04:26:09;;;;;;;1999.90;999.90;;;;;;;1.63;85.99;101372.22;1696707;83;20911;-81
2021/11/14 04:28:37;;;;;;;1999.90;999.90;;;;;;;1.64;85.96;101377.78;1692270;84;20859;-81
2021/11/14 04:31:03;;;;;;;1999.90;999.90;;;;;;;1.66;86.03;101369.77;1645237;84;20974;-81
2021/11/14 04:33:30;;;;;;;1999.90;999.90;;;;;;;1.69;86.05;101373.70;1668416;84;20960;-81
2021/11/14 04:35:56;;;;;;;1999.90;999.90;;;;;;;1.69;85.97;101376.24;1661476;86;20947;-81
2021/11/14 04:38:22;;;;;;;1999.90;999.90;;;;;;;1.70;85.98;101381.80;1633843;87;20968;-81
2021/11/14 04:40:50;;;;;;;1999.90;999.90;;;;;;;1.73;86.02;101378.08;1705882;83;20906;-81
2021/11/14 04:43:18;;;;;;;1999.90;999.90;;;;;;;1.74;85.99;101378.53;1679475;84;20927;-81
2021/11/14 04:45:47;;;;;;;1999.90;999.90;;;;;;;1.74;85.95;101381.08;1691663;83;20914;-81
2021/11/14 04:48:14;;;;;;;1999.90;999.90;;;;;;;1.75;85.96;101385.77;1669661;82;21001;-81
2021/11/14 04:50:40;;;;;;;;;;;;;;;1.74;85.95;101390.01;1705514;83;20910;-81
2021/11/14 04:53:07;;;;;;;1999.90;999.90;;;;;;;1.74;85.94;101392.96;1690512;82;21619;-81
2021/11/14 04:55:34;;;;;;;;;;;;;;;1.72;85.97;101389.09;1696326;83;20939;-81
2021/11/14 04:58:00;;;;;;;1999.90;999.90;;;;;;;1.73;86.07;101394.65;1698070;83;20405;-81
2021/11/14 05:00:31;;;;;;;1999.90;999.90;;;;;;;1.75;86.08;101395.97;1679587;84;20882;-81
2021/11/14 05:02:57;;;;;;;1999.90;999.90;;;;;;;1.77;86.09;101399.44;1701177;83;20887;-81
2021/11/14 05:05:23;;;;;;;1999.90;999.90;;;;;;;1.77;86.13;101403.27;1702769;83;21821;-81
2021/11/14 05:07:50;;;;;;;1999.90;999.90;;;;;;;1.78;86.11;101404.59;1706520;83;20946;-81
2021/11/14 05:10:16;;;;;;;;;;;;;;;1.80;86.11;101407.19;1696656;83;20920;-81
2021/11/14 05:12:42;;;;;;;1999.90;999.90;;;;;;;1.82;86.20;101406.41;1686649;83;20096;-81
2021/11/14 05:15:09;;;;;;;1999.90;999.90;;;;;;;1.84;86.18;101403.51;1710738;82;20958;-80
2021/11/14 05:17:37;;;;;;;1999.90;999.90;;;;;;;1.85;86.18;101409.47;1681369;83;20915;-80
2021/11/14 05:20:07;;;;;;;1999.90;999.90;;;;;;;1.87;86.20;101406.16;1696789;83;20910;-80
2021/11/14 05:22:34;;;;;;;1999.90;999.90;;;;;;;1.89;86.26;101408.34;1710394;83;20930;-80
2021/11/14 05:25:03;;;;;;;1999.90;999.90;;;;;;;1.93;86.26;101405.48;1700464;82;20950;-80
2021/11/14 05:27:29;;;;;;;1999.90;999.90;;;;;;;1.95;86.22;101410.22;1668338;84;20885;-80
2021/11/14 05:29:55;;;;;;;1999.90;999.90;;;;;;;1.95;86.21;101415.33;1665934;86;21615;-80
2021/11/14 05:32:22;;;;;;;1999.90;999.90;;;;;;;1.93;86.14;101419.52;1660311;84;20962;-81
2021/11/14 05:34:48;;;;;;;1999.90;999.90;;;;;;;1.93;86.18;101420.78;1662382;84;24542;-81
2021/11/14 05:37:14;;;;;;;1999.90;999.90;;;;;;;1.93;86.20;101426.75;1662625;84;20894;-81
2021/11/14 05:39:41;;;;;;;1999.90;999.90;;;;;;;1.93;86.26;101434.41;1701526;83;20955;-81
2021/11/14 05:42:07;;;;;;;1999.90;999.90;;;;;;;1.96;86.27;101438.73;1706477;83;21415;-81
2021/11/14 05:44:34;;;;;;;1999.90;999.90;;;;;;;1.98;86.28;101448.17;1690735;82;20970;-81
2021/11/14 05:47:00;;;;;;;1999.90;999.90;;;;;;;1.98;86.25;101446.03;1694420;83;20883;-80
2021/11/14 05:49:27;;;;;;;1999.90;999.90;;;;;;;2.00;86.29;101450.77;1677176;84;21395;-80
2021/11/14 05:51:52;;;;;;;1999.90;999.90;;;;;;;2.03;86.30;101458.93;1658656;84;21005;-80
2021/11/14 05:54:18;;;;;;;1999.90;999.90;;;;;;;2.01;86.22;101465.66;1700149;82;21135;-80
2021/11/14 05:56:45;;;;;;;1999.90;999.90;;;;;;;1.99;86.22;101467.76;1675691;83;20949;-80
2021/11/14 05:59:33;;;;;;;1999.90;999.90;;;;;;;2.02;86.32;101478.47;1686311;83;20947;-79
2021/11/14 06:06:45;;;;;;;1999.90;999.90;;;;;;;2.08;86.36;101495.22;1671105;83;21687;-79
2021/11/14 06:09:11;;;;;;;1999.90;999.90;;;;;;;2.10;86.39;101491.03;1705533;82;20876;-79
2021/11/14 06:11:37;;;;;;;1999.90;999.90;;;;;;;2.04;86.45;101479.39;1698856;82;20842;-80
2021/11/14 06:14:04;;;;;;;;;;;;;;;2.15;86.31;101500.11;1698016;82;20907;-80
2021/11/14 06:16:30;;;;;;;;;;;;;;;2.12;86.32;101505.98;1693535;82;20125;-80
2021/11/14 06:18:56;;;;;;;1999.90;999.90;;;;;;;2.11;86.30;101518.28;1701892;82;20208;-80
2021/11/14 06:21:23;;;;;;;1999.90;999.90;;;;;;;2.09;86.26;101518.63;1686940;82;20930;-80
2021/11/14 06:23:51;;;;;;;1999.90;999.90;;;;;;;2.09;86.32;101519.91;1693705;83;20959;-80
2021/11/14 06:26:19;;;;;;;1999.90;999.90;;;;;;;2.09;86.31;101528.84;1699430;82;20958;-80
2021/11/14 06:28:45;;;;;;;1999.90;999.90;;;;;;;2.11;86.40;101531.03;1700797;82;20883;-80
2021/11/14 06:31:11;;;;;;;1999.90;999.90;;;;;;;2.14;86.38;101540.47;1701275;82;25047;-80
2021/11/14 06:33:37;;;;;;;1999.90;999.90;;;;;;;2.14;86.38;101554.09;1702064;82;20889;-80
2021/11/14 06:36:04;;;;;;;1999.90;999.90;;;;;;;2.16;86.45;101551.19;1701598;82;20916;-80
2021/11/14 06:38:30;;;;;;;1999.90;999.90;;;;;;;2.20;86.47;101556.84;1693285;82;20857;-80
2021/11/14 06:40:57;;;;;;;1999.90;999.90;;;;;;;2.23;86.52;101564.61;1698668;82;20889;-80
2021/11/14 06:43:23;;;;;;;1999.90;999.90;;;;;;;2.27;86.48;101568.13;1700553;82;20890;-80
2021/11/14 06:45:49;;;;;;;1999.90;999.90;;;;;;;2.29;86.49;101571.19;1697820;82;20916;-80
2021/11/14 06:48:15;;;;;;;1999.90;999.90;;;;;;;2.32;86.44;101571.70;1696652;83;21632;-80
2021/11/14 06:50:41;;;;;;;1999.90;999.90;;;;;;;2.30;86.41;101572.92;1698484;82;20907;-80
2021/11/14 06:53:07;;;;;;;1999.90;999.90;;;;;;;2.30;86.40;101577.16;1700081;82;20980;-80
2021/11/14 06:55:33;;;;;;;1999.90;999.90;;;;;;;2.29;86.42;101580.53;1687788;83;21038;-80
2021/11/14 06:58:00;;;;;;;1999.90;999.90;;;;;;;2.31;86.44;101589.10;1699398;83;22230;-80
2021/11/14 07:00:28;;;;;;;1999.90;999.90;;;;;;;2.29;86.35;101591.60;1695467;83;21141;-80
2021/11/14 07:02:54;;;;;;;1999.90;999.90;;;;;;;2.24;86.29;101592.27;1694637;83;20974;-80
2021/11/14 07:05:20;;;;;;;1999.90;999.90;;;;;;;2.24;86.40;101607.17;1703227;83;21282;-80
2021/11/14 07:07:47;;;;;;;1999.90;999.90;;;;;;;2.25;86.47;101607.63;1673971;84;20971;-80
2021/11/14 07:10:16;;;;;;;1999.90;999.90;;;;;;;2.24;86.38;101612.27;1671265;84;20924;-81
2021/11/14 07:12:43;;;;;;;1999.90;999.90;;;;;;;2.24;86.43;101610.13;1656453;86;20924;-79
2021/11/14 07:15:12;;;;;;;;;;;;;;;2.26;86.46;101619.57;1643004;85;20964;-79
2021/11/14 07:52:25;;;;;;;1999.90;999.90;;;;;;;2.33;86.71;101655.09;1690773;81;21113;-78
2021/11/14 07:54:51;;;;;;;1999.90;999.90;;;;;;;2.33;86.68;101661.07;1691201;83;21117;-79
2021/11/14 07:57:18;;;;;;;1999.90;999.90;;;;;;;2.36;86.70;101663.27;1659614;84;21170;-79
2021/11/14 07:59:44;;;;;;;1999.90;999.90;;;;;;;2.37;86.66;101669.70;1656923;86;21573;-79
2021/11/14 08:02:10;;;;;;;1999.90;999.90;;;;;;;2.41;86.76;101672.81;1656909;86;21037;-79
2021/11/14 08:04:36;;;;;;;1999.90;999.90;;;;;;;2.45;86.78;101681.04;1641764;84;21086;-79
2021/11/14 08:07:04;;;;;;;1999.90;999.90;;;;;;;2.49;86.77;101679.05;1656063;85;21342;-79
2021/11/14 08:09:30;;;;;;;;;;;;;;;2.54;86.77;101681.76;1656645;86;21538;-79
2021/11/14 08:11:56;;;;;;;1999.90;999.90;;;;;;;2.56;86.81;101677.17;1644384;86;20137;-79
2021/11/14 08:14:22;;;;;;;1999.90;999.90;;;;;;;2.60;86.77;101685.36;1649466;86;21153;-79
2021/11/14 08:16:48;;;;;;;1999.90;999.90;;;;;;;2.62;86.71;101685.00;1639221;86;20983;-79
2021/11/14 08:19:14;;;;;;;1999.90;999.90;;;;;;;2.64;86.73;101689.75;1653032;86;21546;-79
2021/11/14 08:21:40;;;;;;;1999.90;999.90;;;;;;;2.63;86.64;101690.56;1651979;86;22015;-79
2021/11/14 08:24:07;;;;;;;1999.90;999.90;;;;;;;2.65;86.72;101694.04;1639129;86;21079;-79
2021/11/14 08:26:33;;;;;;;1999.90;999.90;;;;;;;2.68;86.75;101691.13;1646611;84;21147;-79
2021/11/14 08:29:00;;;;;;;1999.90;999.90;;;;;;;2.70;86.76;101690.36;1654865;86;20938;-79
2021/11/14 08:31:28;;;;;;;1999.90;999.90;;;;;;;2.73;86.79;101695.57;1637091;86;21036;-79
2021/11/14 08:33:56;;;;;;;1999.90;999.90;;;;;;;2.77;86.79;101695.27;1653624;84;21310;-78
2021/11/14 08:36:26;;;;;;;1999.90;999.90;;;;;;;2.76;86.76;101712.27;1658313;86;20926;-78
2021/11/14 08:38:50;;;;;;;1999.90;999.90;;;;;;;2.79;86.78;101707.67;1643556;86;21023;-79
2021/11/14 08:41:16;;;;;;;1999.90;999.90;;;;;;;2.79;86.78;101711.09;1648688;86;20972;-79
2021/11/14 08:43:43;;;;;;;1999.90;999.90;;;;;;;2.81;86.76;101714.98;1639883;86;21452;-79
2021/11/14 08:46:10;;;;;;;1999.90;999.90;;;;;;;2.81;86.77;101717.13;1628646;86;21160;-79
2021/11/14 08:48:37;;;;;;;1999.90;999.90;;;;;;;2.85;86.84;101719.38;1634918;86;25293;-79
2021/11/14 08:51:04;;;;;;;1999.90;999.90;;;;;;;2.86;86.86;101719.42;1628167;86;21126;-79
2021/11/14 08:53:31;;;;;;;1999.90;999.90;;;;;;;2.88;86.83;101720.34;1635852;86;20988;-79
2021/11/14 08:56:01;;;;;;;1999.90;999.90;;;;;;;2.91;86.90;101720.85;1643591;86;20976;-77
2021/11/14 08:58:34;;;;;;;1999.90;999.90;;;;;;;2.94;86.89;101731.17;1655621;86;21007;-77
2021/11/14 09:01:04;;;;;;;1999.90;999.90;;;;;;;2.97;86.92;101728.31;1648612;86;20924;-77
2021/11/14 09:03:33;;;;;;;1999.90;999.90;;;;;;;3.01;86.93;101733.52;1646332;84;20972;-77
2021/11/14 09:05:59;;;;;;;1999.90;999.90;;;;;;;3.05;86.93;101738.78;1628658;88;21416;-77
2021/11/14 09:08:25;;;;;;;1999.90;999.90;;;;;;;3.08;86.94;101734.18;1646196;86;21004;-77
2021/11/14 09:10:54;;;;;;;1999.90;999.90;;;;;;;3.10;86.88;101738.93;1643433;85;20931;-78
2021/11/14 09:13:21;;;;;;;1999.90;999.90;;;;;;;3.10;86.87;101746.59;1660517;84;20956;-78
2021/11/14 09:15:47;;;;;;;1999.90;999.90;;;;;;;3.15;86.97;101746.30;1683811;84;20928;-77
2021/11/14 09:18:18;;;;;;;1999.90;999.90;;;;;;;3.18;86.95;101745.13;1687537;84;20918;-77
2021/11/14 09:20:46;;;;;;;1999.90;999.90;;;;;;;3.20;86.98;101745.63;1660071;85;21534;-77
2021/11/14 09:23:12;;;;;;;1999.90;999.90;;;;;;;3.24;86.92;101748.75;1683737;85;20984;-77
2021/11/14 09:25:40;;;;;;;1999.90;999.90;;;;;;;3.27;86.96;101759.48;1667705;85;20952;-77
2021/11/14 09:28:10;;;;;;;1999.90;999.90;;;;;;;3.29;86.97;101756.16;1659802;85;20872;-77
2021/11/14 09:30:36;;;;;;;1999.90;999.90;;;;;;;3.33;86.99;101752.88;1663615;85;21440;-77
2021/11/14 09:33:04;;;;;;;1999.90;999.90;;;;;;;3.38;87.03;101758.13;1676121;85;20928;-78
2021/11/14 09:35:32;;;;;;;1999.90;999.90;;;;;;;3.43;87.03;101759.14;1662530;85;21415;-77
2021/11/14 09:37:59;;;;;;;1999.90;999.90;;;;;;;3.45;86.98;101764.31;1655777;85;20916;-77
2021/11/14 09:40:25;;;;;;;1999.90;999.90;;;;;;;3.48;87.04;101764.41;1656178;86;20972;-77
2021/11/14 09:42:51;;;;;;;1999.90;999.90;;;;;;;3.50;87.00;101766.19;1663218;85;20900;-77
2021/11/14 09:45:20;;;;;;;1999.90;999.90;;;;;;;3.53;87.07;101763.73;1682376;85;20929;-77
2021/11/14 09:47:47;;;;;;;1999.90;999.90;;;;;;;3.57;87.05;101768.52;1682978;85;21657;-77
2021/11/14 09:50:13;;;;;;;1999.90;999.90;;;;;;;3.57;86.99;101770.67;1680875;85;21075;-77
2021/11/14 09:52:48;;;;;;;1999.90;999.90;;;;;;;3.60;87.02;101776.30;1681237;85;21055;-77
2021/11/14 09:55:15;;;;;;;1999.90;999.90;;;;;;;3.63;87.08;101780.22;1674746;85;21038;-77
2021/11/14 09:57:44;;;;;;;1999.90;999.90;;;;;;;3.66;87.08;101780.29;1672277;85;21045;-77
2021/11/14 10:00:19;;;;;;;1999.90;999.90;;;;;;;3.70;87.11;101777.00;1679923;85;20962;-77
2021/11/14 10:02:46;;;;;;;1999.90;999.90;;;;;;;3.75;87.10;101775.45;1665401;85;20880;-77
2021/11/14 10:05:14;;;;;;;1999.90;999.90;;;;;;;3.77;87.08;101782.77;1667955;85;20927;-77
2021/11/14 10:07:43;;;;;;;1999.90;999.90;;;;;;;3.80;87.10;101778.16;1683834;85;20960;-78
2021/11/14 10:10:12;;;;;;;1999.90;999.90;;;;;;;3.83;87.13;101775.69;1670745;83;571268;-78
2021/11/14 10:12:38;;;;;;;1999.90;999.90;;;;;;;3.86;87.14;101774.50;1693886;82;20955;-78
2021/11/14 10:15:17;;;;;;;1999.90;999.90;;;;;;;3.91;87.18;101775.50;1647883;84;20951;-78
2021/11/14 10:17:55;;;;;;;1999.90;999.90;;;;;;;3.95;87.15;101774.77;1685801;82;20944;-78
2021/11/14 10:20:27;;;;;;;1999.90;999.90;;;;;;;4.00;87.16;101779.61;1693366;82;20915;-78
2021/11/14 10:23:04;;;;;;;1999.90;999.90;;;;;;;4.05;87.16;101782.31;1705944;82;20910;-78
2021/11/14 10:25:31;;;;;;;1999.90;999.90;;;;;;;4.10;87.21;101782.03;1693813;82;20919;-78
2021/11/14 10:28:03;;;;;;;1999.90;999.90;;;;;;;4.14;87.18;101785.14;1671035;84;20912;-78
2021/11/14 10:30:37;;;;;;;1999.90;999.90;;;;;;;4.16;87.15;101780.48;1667077;83;20961;-78
2021/11/14 10:33:08;;;;;;;1999.90;999.90;;;;;;;4.21;87.21;101785.73;1657878;84;21405;-78
2021/11/14 10:35:37;;;;;;;1999.90;999.90;;;;;;;4.26;87.22;101786.33;1679947;83;20922;-78
2021/11/14 10:38:11;;;;;;;1999.90;999.90;;;;;;;4.32;87.25;101792.03;1691479;84;20875;-78
2021/11/14 10:40:42;;;;;;;1999.90;999.90;;;;;;;4.35;87.22;101791.25;1677761;83;20937;-78
2021/11/14 10:43:08;;;;;;;1999.90;999.90;;;;;;;4.39;87.25;101783.70;1693316;84;21354;-78
2021/11/14 10:45:39;;;;;;;1999.90;999.90;;;;;;;4.45;87.27;101786.44;1696046;82;21486;-79
2021/11/14 10:48:09;;;;;;;1999.90;999.90;;;;;;;4.49;87.24;101790.81;1642152;84;21059;-79
2021/11/14 10:50:42;;;;;;;1999.90;999.90;;;;;;;4.52;87.17;101794.74;1684508;84;20941;-79
2021/11/14 10:53:13;;;;;;;1999.90;999.90;;;;;;;4.56;87.24;101795.28;1676042;84;20966;-79
2021/11/14 10:55:57;;;;;;;1510.28;758.12;;;;;;;4.60;87.24;101791.11;1680920;83;21037;-79
2021/11/14 10:58:27;;;;;;;1999.90;999.90;;;;;;;4.67;87.28;101796.86;1679240;82;21018;-78
2021/11/14 11:01:10;;;;;;;1999.90;999.90;;;;;;;4.73;87.28;101794.42;1698543;83;21485;-79
2021/11/14 11:03:48;;;;;;;1999.90;999.90;;;;;;;4.77;87.22;101797.52;1687104;84;21496;-82
2021/11/14 11:06:29;;;;;;;1999.90;999.90;;;;;;;4.79;87.19;101801.41;1678106;82;21137;-77
2021/11/14 11:09:03;;;;;;;1999.90;999.90;;;;;;;4.82;87.16;101805.34;1688115;84;21041;-79
2021/11/14 11:11:31;;;;;;;1999.90;999.90;;;;;;;4.84;87.21;101807.11;1702780;83;21286;-77
2021/11/14 11:13:58;;;;;;;1999.90;999.90;;;;;;;4.87;87.22;101812.73;1717449;81;21524;-79
2021/11/14 11:16:30;;;;;;;1999.90;999.90;;;;;;;4.91;87.26;101815.41;1694414;82;21714;-81
2021/11/14 11:19:08;;;;;;;1999.90;999.90;;;;;;;4.95;87.25;101820.20;1714904;82;20922;-78
2021/11/14 11:21:42;;;;;;;1999.90;999.90;;;;;;;4.95;87.23;101818.52;1688408;83;20952;-78
2021/11/14 11:24:15;;;;;;;1999.90;999.90;;;;;;;5.00;87.24;101818.64;1682490;83;20940;-78
2021/11/14 11:27:03;;;;;;;1999.90;999.90;;;;;;;5.03;87.24;101822.97;1711717;81;20890;-78
2021/11/14 11:29:33;;;;;;;1999.90;999.90;;;;;;;5.05;87.25;101827.73;1714079;81;20933;-79
2021/11/14 11:31:59;;;;;;;1999.90;999.90;;;;;;;5.06;87.23;101823.05;1687538;83;20888;-78
2021/11/14 11:34:26;;;;;;;1999.90;999.90;;;;;;;5.11;87.28;101827.89;1687613;83;20947;-78
2021/11/14 11:36:55;;;;;;;1999.90;999.90;;;;;;;5.14;87.29;101826.69;1716295;81;21581;-78
2021/11/14 11:39:23;;;;;;;1999.90;999.90;;;;;;;5.18;87.34;101824.23;1715029;82;20965;-78
2021/11/14 11:41:52;;;;;;;1999.90;999.90;;;;;;;5.22;87.27;101827.30;1721026;81;20917;-78